Forseti — V2PV4 — position and weather

sailwx.info

Track history (hours):
 
Tides and Currents Weather Stations Pressure Air Temp Water Temp Dewpoint Dewpoint Depression Visibility Wind Speed Wind Dir Waves Ship Positions

Forseti

Last reported at 2016-May-24 09:14 UTC. Time now 2016-May-24 09:57 UTC.
Position N 56°25' E 012°28'.

Length 85 m; draft 3.9 m.

Type: Cargo ship. MMSI: 304010297.

Date/timePositionNaut miles runAvg speedWind from/ knotsBaromVisibWave heightAir tempDewpointWater temp
2016-May-24 09:14N 56°25' E 012°28'7 9.6
2016-May-24 08:33N 56°30' E 012°35'10 9.7
2016-May-24 07:33N 56°37' E 012°48'3 0.9
2016-May-24 04:26N 56°39' E 012°51'0 0.0
2016-May-24 03:31N 56°39' E 012°51'0 0.0
2016-May-24 02:31N 56°39' E 012°51'0 0.0
2016-May-24 01:31N 56°39' E 012°51'0 0.0
2016-May-24 00:31N 56°39' E 012°51'0 0.0
2016-May-23 23:31N 56°39' E 012°51'0 0.0
2016-May-23 22:25N 56°39' E 012°51'0 0.0
2016-May-23 00:13N 56°39' E 012°51'0 0.0
2016-May-22 23:07N 56°39' E 012°51'0 0.0
2016-May-22 18:31N 56°39' E 012°51'0 0.0
2016-May-22 17:31N 56°39' E 012°51'0 0.0
2016-May-22 16:13N 56°39' E 012°51'0 0.0
2016-May-22 15:31N 56°39' E 012°51'0 0.0
2016-May-22 14:19N 56°39' E 012°51'0 0.0
2016-May-22 13:31N 56°39' E 012°51'0 0.0
2016-May-22 12:31N 56°39' E 012°51'0 0.1
2016-May-22 08:33N 56°39' E 012°51'9 9.2
2016-May-22 07:33N 56°33' E 012°39'19 9.7
2016-May-22 05:33N 56°14' E 012°27'1211.6
2016-May-22 04:33N 56°04' E 012°38'1111.0
2016-May-22 03:33N 55°54' E 012°45'1110.9
2016-May-22 02:33N 55°43' E 012°41'1010.5
2016-May-22 01:33N 55°33' E 012°43'1010.4
2016-May-22 00:33N 55°22' E 012°41'9 8.9
2016-May-21 23:33N 55°16' E 012°52'1010.2
2016-May-21 22:33N 55°16' E 013°10'1010.2
2016-May-21 21:33N 55°15' E 013°28'1010.4
2016-May-21 20:33N 55°14' E 013°46'1010.5
2016-May-21 19:33N 55°14' E 014°05'9 9.1
2016-May-21 18:33N 55°17' E 014°20'1010.1
2016-May-21 17:33N 55°24' E 014°31'1010.0
2016-May-21 16:33N 55°29' E 014°48'1010.0
2016-May-21 15:33N 55°31' E 015°04'10 9.8
2016-May-21 14:33N 55°32' E 015°22'  
2016-May-19 07:27N 55°48' E 019°10'58 9.8
2016-May-19 01:33N 55°51' E 017°27'70 9.6
2016-May-18 18:15N 55°56' E 015°22'8 9.6
2016-May-18 17:22N 55°56' E 015°07'8 9.6
2016-May-18 16:33N 55°57' E 014°53'10 9.6
2016-May-18 15:33N 55°58' E 014°36'8 0.2
2016-May-16 16:32N 55°50' E 014°37'10 9.7
2016-May-16 15:33N 55°40' E 014°37'9 9.3
2016-May-16 14:33N 55°31' E 014°38'9 8.8
2016-May-16 13:33N 55°23' E 014°35'9 9.2
2016-May-16 12:34N 55°15' E 014°26'9 9.2
2016-May-16 11:34N 55°08' E 014°16'10 9.5
2016-May-16 10:33N 55°01' E 014°04'1010.1
2016-May-16 09:33N 54°57' E 013°48'4110.2
2016-May-16 05:34N 54°40' E 012°44'1111.0
2016-May-16 04:31N 54°35' E 012°27'1010.6
2016-May-16 03:32N 54°27' E 012°14'1010.2
2016-May-16 02:33N 54°24' E 011°58'1110.8
2016-May-16 01:33N 54°26' E 011°40'1111.3
2016-May-16 00:33N 54°31' E 011°22'1111.2
2016-May-15 23:34N 54°34' E 011°04'1010.5
2016-May-15 22:34N 54°33' E 010°46'10 9.6
2016-May-15 21:34N 54°31' E 010°30'10 9.7
2016-May-15 20:34N 54°27' E 010°15'6 6.1
2016-May-15 19:33N 54°22' E 010°09'4 4.4
2016-May-15 18:34N 54°22' E 010°01'5 5.0
2016-May-15 17:33N 54°22' E 009°52'23 6.9
2016-May-15 14:15N 54°08' E 009°21'6 8.1
2016-May-15 13:33N 54°03' E 009°18'1 0.8
2016-May-15 12:33N 54°02' E 009°18'7 7.5
2016-May-15 11:33N 53°56' E 009°12'3 2.9
2016-May-15 10:34N 53°54' E 009°09'4 3.8
2016-May-15 09:33N 53°52' E 009°03'9 9.4
2016-May-15 08:33N 53°50' E 008°47'10 9.7
2016-May-15 07:33N 53°58' E 008°36'10 9.5
2016-May-15 06:33N 53°59' E 008°20'9 9.0
2016-May-15 05:33N 53°58' E 008°05'9 9.2
2016-May-15 04:33N 53°56' E 007°49'10 9.5
2016-May-15 03:33N 53°54' E 007°34'10 9.7
2016-May-15 02:34N 53°52' E 007°18'9 9.5
2016-May-15 01:34N 53°50' E 007°02'9 9.2
2016-May-15 00:33N 53°47' E 006°47'9 8.7
2016-May-14 23:34N 53°45' E 006°33'8 8.1
2016-May-14 22:33N 53°43' E 006°19'8 7.6
2016-May-14 21:33N 53°41' E 006°07'7 7.3
2016-May-14 20:34N 53°39' E 005°55'7 7.2
2016-May-14 19:34N 53°37' E 005°44'7 6.8
2016-May-14 18:34N 53°35' E 005°33'7 6.9
2016-May-14 17:33N 53°33' E 005°22'7 7.1
2016-May-14 16:33N 53°31' E 005°10'  
Track history (hours):
 
Tides and Currents Weather Stations Pressure Air Temp Water Temp Dewpoint Dewpoint Depression Visibility Wind Speed Wind Dir Waves Ship Positions

Forseti

Last reported at 2016-May-24 09:14 UTC. Time now 2016-May-24 09:57 UTC.
Position N 56°25' E 012°28'.

Length 85 m; draft 3.9 m.

Type: Cargo ship. MMSI: 304010297.

Date/timePositionNaut miles runAvg speedWind from/ knotsBaromVisibWave heightAir tempDewpointWater temp
2016-May-24 09:14N 56°25' E 012°28'7 9.6
2016-May-24 08:33N 56°30' E 012°35'10 9.7
2016-May-24 07:33N 56°37' E 012°48'3 0.9
2016-May-24 04:26N 56°39' E 012°51'0 0.0
2016-May-24 03:31N 56°39' E 012°51'0 0.0
2016-May-24 02:31N 56°39' E 012°51'0 0.0
2016-May-24 01:31N 56°39' E 012°51'0 0.0
2016-May-24 00:31N 56°39' E 012°51'0 0.0
2016-May-23 23:31N 56°39' E 012°51'0 0.0
2016-May-23 22:25N 56°39' E 012°51'0 0.0
2016-May-23 00:13N 56°39' E 012°51'0 0.0
2016-May-22 23:07N 56°39' E 012°51'0 0.0
2016-May-22 18:31N 56°39' E 012°51'0 0.0
2016-May-22 17:31N 56°39' E 012°51'0 0.0
2016-May-22 16:13N 56°39' E 012°51'0 0.0
2016-May-22 15:31N 56°39' E 012°51'0 0.0
2016-May-22 14:19N 56°39' E 012°51'0 0.0
2016-May-22 13:31N 56°39' E 012°51'0 0.0
2016-May-22 12:31N 56°39' E 012°51'0 0.1
2016-May-22 08:33N 56°39' E 012°51'9 9.2
2016-May-22 07:33N 56°33' E 012°39'19 9.7
2016-May-22 05:33N 56°14' E 012°27'1211.6
2016-May-22 04:33N 56°04' E 012°38'1111.0
2016-May-22 03:33N 55°54' E 012°45'1110.9
2016-May-22 02:33N 55°43' E 012°41'1010.5
2016-May-22 01:33N 55°33' E 012°43'1010.4
2016-May-22 00:33N 55°22' E 012°41'9 8.9
2016-May-21 23:33N 55°16' E 012°52'1010.2
2016-May-21 22:33N 55°16' E 013°10'1010.2
2016-May-21 21:33N 55°15' E 013°28'1010.4
2016-May-21 20:33N 55°14' E 013°46'1010.5
2016-May-21 19:33N 55°14' E 014°05'9 9.1
2016-May-21 18:33N 55°17' E 014°20'1010.1
2016-May-21 17:33N 55°24' E 014°31'1010.0
2016-May-21 16:33N 55°29' E 014°48'1010.0
2016-May-21 15:33N 55°31' E 015°04'10 9.8
2016-May-21 14:33N 55°32' E 015°22'  
2016-May-19 07:27N 55°48' E 019°10'58 9.8
2016-May-19 01:33N 55°51' E 017°27'70 9.6
2016-May-18 18:15N 55°56' E 015°22'8 9.6
2016-May-18 17:22N 55°56' E 015°07'8 9.6
2016-May-18 16:33N 55°57' E 014°53'10 9.6
2016-May-18 15:33N 55°58' E 014°36'8 0.2
2016-May-16 16:32N 55°50' E 014°37'10 9.7
2016-May-16 15:33N 55°40' E 014°37'9 9.3
2016-May-16 14:33N 55°31' E 014°38'9 8.8
2016-May-16 13:33N 55°23' E 014°35'9 9.2
2016-May-16 12:34N 55°15' E 014°26'9 9.2
2016-May-16 11:34N 55°08' E 014°16'10 9.5
2016-May-16 10:33N 55°01' E 014°04'1010.1
2016-May-16 09:33N 54°57' E 013°48'4110.2
2016-May-16 05:34N 54°40' E 012°44'1111.0
2016-May-16 04:31N 54°35' E 012°27'1010.6
2016-May-16 03:32N 54°27' E 012°14'1010.2
2016-May-16 02:33N 54°24' E 011°58'1110.8
2016-May-16 01:33N 54°26' E 011°40'1111.3
2016-May-16 00:33N 54°31' E 011°22'1111.2
2016-May-15 23:34N 54°34' E 011°04'1010.5
2016-May-15 22:34N 54°33' E 010°46'10 9.6
2016-May-15 21:34N 54°31' E 010°30'10 9.7
2016-May-15 20:34N 54°27' E 010°15'6 6.1
2016-May-15 19:33N 54°22' E 010°09'4 4.4
2016-May-15 18:34N 54°22' E 010°01'5 5.0
2016-May-15 17:33N 54°22' E 009°52'23 6.9
2016-May-15 14:15N 54°08' E 009°21'6 8.1
2016-May-15 13:33N 54°03' E 009°18'1 0.8
2016-May-15 12:33N 54°02' E 009°18'7 7.5
2016-May-15 11:33N 53°56' E 009°12'3 2.9
2016-May-15 10:34N 53°54' E 009°09'4 3.8
2016-May-15 09:33N 53°52' E 009°03'9 9.4
2016-May-15 08:33N 53°50' E 008°47'10 9.7
2016-May-15 07:33N 53°58' E 008°36'10 9.5
2016-May-15 06:33N 53°59' E 008°20'9 9.0
2016-May-15 05:33N 53°58' E 008°05'9 9.2
2016-May-15 04:33N 53°56' E 007°49'10 9.5
2016-May-15 03:33N 53°54' E 007°34'10 9.7
2016-May-15 02:34N 53°52' E 007°18'9 9.5
2016-May-15 01:34N 53°50' E 007°02'9 9.2
2016-May-15 00:33N 53°47' E 006°47'9 8.7
2016-May-14 23:34N 53°45' E 006°33'8 8.1
2016-May-14 22:33N 53°43' E 006°19'8 7.6
2016-May-14 21:33N 53°41' E 006°07'7 7.3
2016-May-14 20:34N 53°39' E 005°55'7 7.2
2016-May-14 19:34N 53°37' E 005°44'7 6.8
2016-May-14 18:34N 53°35' E 005°33'7 6.9
2016-May-14 17:33N 53°33' E 005°22'7 7.1
2016-May-14 16:33N 53°31' E 005°10'  

Dump ship's entire track history